sensor_id;sensor_type;location;lat;lon;timestamp;P1;durP1;ratioP1;P2;durP2;ratioP2
40637;SDS011;26336;44.696;10.622;2024-03-06T00:00:32;14.87;;;7.47;;
40637;SDS011;26336;44.696;10.622;2024-03-06T00:03:36;17.90;;;8.77;;
40637;SDS011;26336;44.696;10.622;2024-03-06T00:06:40;15.93;;;8.07;;
40637;SDS011;26336;44.696;10.622;2024-03-06T00:09:44;10.17;;;5.27;;
40637;SDS011;26336;44.696;10.622;2024-03-06T00:12:48;7.63;;;4.80;;
40637;SDS011;26336;44.696;10.622;2024-03-06T00:15:52;8.10;;;5.03;;
40637;SDS011;26336;44.696;10.622;2024-03-06T00:18:56;7.13;;;4.37;;
40637;SDS011;26336;44.696;10.622;2024-03-06T00:22:00;9.20;;;4.23;;
40637;SDS011;26336;44.696;10.622;2024-03-06T00:25:06;5.50;;;4.00;;
40637;SDS011;26336;44.696;10.622;2024-03-06T00:28:11;6.97;;;4.27;;
40637;SDS011;26336;44.696;10.622;2024-03-06T00:31:16;7.93;;;4.67;;
40637;SDS011;26336;44.696;10.622;2024-03-06T00:34:20;6.10;;;4.90;;
40637;SDS011;26336;44.696;10.622;2024-03-06T00:37:24;6.13;;;4.13;;
40637;SDS011;26336;44.696;10.622;2024-03-06T00:40:28;5.27;;;4.00;;
40637;SDS011;26336;44.696;10.622;2024-03-06T00:43:35;5.00;;;3.80;;
40637;SDS011;26336;44.696;10.622;2024-03-06T00:46:39;4.47;;;3.80;;
40637;SDS011;26336;44.696;10.622;2024-03-06T00:49:43;6.93;;;4.17;;
40637;SDS011;26336;44.696;10.622;2024-03-06T00:52:46;6.97;;;4.30;;
40637;SDS011;26336;44.696;10.622;2024-03-06T00:55:52;7.33;;;4.17;;
40637;SDS011;26336;44.696;10.622;2024-03-06T00:58:56;6.20;;;3.90;;
40637;SDS011;26336;44.696;10.622;2024-03-06T01:02:00;4.63;;;4.10;;
40637;SDS011;26336;44.696;10.622;2024-03-06T01:05:04;3.63;;;3.33;;
40637;SDS011;26336;44.696;10.622;2024-03-06T01:08:10;5.10;;;3.73;;
40637;SDS011;26336;44.696;10.622;2024-03-06T01:11:14;5.33;;;4.10;;
40637;SDS011;26336;44.696;10.622;2024-03-06T01:14:42;4.67;;;3.50;;
40637;SDS011;26336;44.696;10.622;2024-03-06T01:17:47;4.00;;;3.47;;
40637;SDS011;26336;44.696;10.622;2024-03-06T01:20:50;5.07;;;3.47;;
40637;SDS011;26336;44.696;10.622;2024-03-06T01:23:54;5.83;;;3.23;;
40637;SDS011;26336;44.696;10.622;2024-03-06T01:26:58;5.67;;;3.40;;
40637;SDS011;26336;44.696;10.622;2024-03-06T01:30:06;4.87;;;3.50;;
40637;SDS011;26336;44.696;10.622;2024-03-06T01:33:10;3.87;;;3.27;;
40637;SDS011;26336;44.696;10.622;2024-03-06T01:36:14;4.17;;;3.30;;
40637;SDS011;26336;44.696;10.622;2024-03-06T01:39:19;4.53;;;3.60;;
40637;SDS011;26336;44.696;10.622;2024-03-06T01:42:22;3.47;;;3.17;;
40637;SDS011;26336;44.696;10.622;2024-03-06T01:45:27;4.03;;;3.50;;
40637;SDS011;26336;44.696;10.622;2024-03-06T01:48:31;4.33;;;3.67;;
40637;SDS011;26336;44.696;10.622;2024-03-06T01:51:35;4.10;;;3.70;;
40637;SDS011;26336;44.696;10.622;2024-03-06T01:54:40;4.23;;;3.30;;
40637;SDS011;26336;44.696;10.622;2024-03-06T01:57:44;4.10;;;3.23;;
40637;SDS011;26336;44.696;10.622;2024-03-06T02:00:49;4.50;;;3.77;;
40637;SDS011;26336;44.696;10.622;2024-03-06T02:03:53;4.83;;;3.20;;
40637;SDS011;26336;44.696;10.622;2024-03-06T02:07:00;3.73;;;3.37;;
40637;SDS011;26336;44.696;10.622;2024-03-06T02:10:06;4.07;;;3.47;;
40637;SDS011;26336;44.696;10.622;2024-03-06T02:13:13;3.80;;;3.07;;
40637;SDS011;26336;44.696;10.622;2024-03-06T02:16:17;3.87;;;3.20;;
40637;SDS011;26336;44.696;10.622;2024-03-06T02:19:21;5.73;;;3.60;;
40637;SDS011;26336;44.696;10.622;2024-03-06T02:22:25;4.33;;;3.90;;
40637;SDS011;26336;44.696;10.622;2024-03-06T02:25:29;3.67;;;3.37;;
40637;SDS011;26336;44.696;10.622;2024-03-06T02:28:33;3.57;;;3.27;;
40637;SDS011;26336;44.696;10.622;2024-03-06T02:31:38;4.63;;;4.00;;
40637;SDS011;26336;44.696;10.622;2024-03-06T02:34:43;5.17;;;3.57;;
40637;SDS011;26336;44.696;10.622;2024-03-06T02:37:47;4.90;;;3.53;;
40637;SDS011;26336;44.696;10.622;2024-03-06T02:40:51;4.00;;;3.60;;
40637;SDS011;26336;44.696;10.622;2024-03-06T02:43:54;5.07;;;3.20;;
40637;SDS011;26336;44.696;10.622;2024-03-06T02:46:59;3.87;;;3.10;;
40637;SDS011;26336;44.696;10.622;2024-03-06T02:50:03;3.47;;;2.57;;
40637;SDS011;26336;44.696;10.622;2024-03-06T02:53:08;4.60;;;3.10;;
40637;SDS011;26336;44.696;10.622;2024-03-06T02:56:18;3.80;;;3.30;;
40637;SDS011;26336;44.696;10.622;2024-03-06T02:59:28;4.07;;;3.47;;
40637;SDS011;26336;44.696;10.622;2024-03-06T03:02:32;5.43;;;3.57;;
40637;SDS011;26336;44.696;10.622;2024-03-06T03:05:36;4.67;;;4.13;;
40637;SDS011;26336;44.696;10.622;2024-03-06T03:08:40;4.00;;;3.40;;
40637;SDS011;26336;44.696;10.622;2024-03-06T03:11:44;5.17;;;3.90;;
40637;SDS011;26336;44.696;10.622;2024-03-06T03:14:48;3.97;;;3.57;;
40637;SDS011;26336;44.696;10.622;2024-03-06T03:17:52;3.77;;;3.37;;
40637;SDS011;26336;44.696;10.622;2024-03-06T03:20:57;3.97;;;3.43;;
40637;SDS011;26336;44.696;10.622;2024-03-06T03:24:01;3.70;;;2.83;;
40637;SDS011;26336;44.696;10.622;2024-03-06T03:27:06;4.50;;;3.07;;
40637;SDS011;26336;44.696;10.622;2024-03-06T03:30:11;3.50;;;3.00;;
40637;SDS011;26336;44.696;10.622;2024-03-06T03:33:15;3.83;;;3.13;;
40637;SDS011;26336;44.696;10.622;2024-03-06T03:36:19;3.87;;;3.10;;
40637;SDS011;26336;44.696;10.622;2024-03-06T03:39:23;4.50;;;2.70;;
40637;SDS011;26336;44.696;10.622;2024-03-06T03:42:27;4.80;;;2.60;;
40637;SDS011;26336;44.696;10.622;2024-03-06T03:45:35;3.93;;;2.87;;
40637;SDS011;26336;44.696;10.622;2024-03-06T03:48:39;4.97;;;3.00;;
40637;SDS011;26336;44.696;10.622;2024-03-06T03:51:43;3.23;;;2.93;;
40637;SDS011;26336;44.696;10.622;2024-03-06T03:54:47;4.03;;;3.17;;
40637;SDS011;26336;44.696;10.622;2024-03-06T03:57:51;3.90;;;2.77;;
40637;SDS011;26336;44.696;10.622;2024-03-06T04:01:00;3.07;;;2.77;;
40637;SDS011;26336;44.696;10.622;2024-03-06T04:04:07;4.07;;;3.10;;
40637;SDS011;26336;44.696;10.622;2024-03-06T04:07:11;4.83;;;2.97;;
40637;SDS011;26336;44.696;10.622;2024-03-06T04:10:15;4.00;;;3.03;;
40637;SDS011;26336;44.696;10.622;2024-03-06T04:13:19;3.53;;;2.50;;
40637;SDS011;26336;44.696;10.622;2024-03-06T04:16:23;2.90;;;2.57;;
40637;SDS011;26336;44.696;10.622;2024-03-06T04:19:27;3.27;;;2.57;;
40637;SDS011;26336;44.696;10.622;2024-03-06T04:22:31;4.60;;;2.73;;
40637;SDS011;26336;44.696;10.622;2024-03-06T04:25:35;3.37;;;2.60;;
40637;SDS011;26336;44.696;10.622;2024-03-06T04:28:40;3.50;;;2.87;;
40637;SDS011;26336;44.696;10.622;2024-03-06T04:31:44;4.03;;;2.67;;
40637;SDS011;26336;44.696;10.622;2024-03-06T04:34:48;6.37;;;2.90;;
40637;SDS011;26336;44.696;10.622;2024-03-06T04:37:52;3.23;;;2.70;;
40637;SDS011;26336;44.696;10.622;2024-03-06T04:40:56;3.33;;;3.03;;
40637;SDS011;26336;44.696;10.622;2024-03-06T04:44:00;3.23;;;2.57;;
40637;SDS011;26336;44.696;10.622;2024-03-06T04:47:04;3.63;;;2.90;;
40637;SDS011;26336;44.696;10.622;2024-03-06T04:50:11;3.67;;;3.13;;
40637;SDS011;26336;44.696;10.622;2024-03-06T04:53:17;4.97;;;3.50;;
40637;SDS011;26336;44.696;10.622;2024-03-06T04:56:23;4.83;;;3.23;;
40637;SDS011;26336;44.696;10.622;2024-03-06T04:59:27;3.87;;;3.47;;
40637;SDS011;26336;44.696;10.622;2024-03-06T05:02:31;3.33;;;3.03;;
40637;SDS011;26336;44.696;10.622;2024-03-06T05:05:37;4.43;;;3.03;;
40637;SDS011;26336;44.696;10.622;2024-03-06T05:08:42;3.83;;;2.80;;
40637;SDS011;26336;44.696;10.622;2024-03-06T05:11:47;3.10;;;2.80;;
40637;SDS011;26336;44.696;10.622;2024-03-06T05:14:54;4.50;;;2.67;;
40637;SDS011;26336;44.696;10.622;2024-03-06T05:17:58;4.00;;;3.00;;
40637;SDS011;26336;44.696;10.622;2024-03-06T05:21:03;3.57;;;3.10;;
40637;SDS011;26336;44.696;10.622;2024-03-06T05:24:08;2.97;;;2.77;;
40637;SDS011;26336;44.696;10.622;2024-03-06T05:27:12;3.87;;;2.53;;
40637;SDS011;26336;44.696;10.622;2024-03-06T05:30:19;3.20;;;2.80;;
40637;SDS011;26336;44.696;10.622;2024-03-06T05:33:23;3.50;;;3.10;;
40637;SDS011;26336;44.696;10.622;2024-03-06T05:36:27;2.90;;;2.70;;
40637;SDS011;26336;44.696;10.622;2024-03-06T05:39:31;3.37;;;2.83;;
40637;SDS011;26336;44.696;10.622;2024-03-06T05:42:35;3.17;;;2.87;;
40637;SDS011;26336;44.696;10.622;2024-03-06T05:45:40;5.77;;;3.00;;
40637;SDS011;26336;44.696;10.622;2024-03-06T05:48:44;2.93;;;2.73;;
40637;SDS011;26336;44.696;10.622;2024-03-06T05:51:48;4.07;;;2.90;;
40637;SDS011;26336;44.696;10.622;2024-03-06T05:54:52;6.10;;;3.93;;
40637;SDS011;26336;44.696;10.622;2024-03-06T05:57:57;4.00;;;3.40;;
40637;SDS011;26336;44.696;10.622;2024-03-06T06:01:03;3.97;;;3.40;;
40637;SDS011;26336;44.696;10.622;2024-03-06T06:04:07;4.17;;;3.77;;
40637;SDS011;26336;44.696;10.622;2024-03-06T06:07:14;3.90;;;3.50;;
40637;SDS011;26336;44.696;10.622;2024-03-06T06:10:18;4.80;;;3.87;;
40637;SDS011;26336;44.696;10.622;2024-03-06T06:13:23;5.17;;;3.83;;
40637;SDS011;26336;44.696;10.622;2024-03-06T06:16:32;4.63;;;3.83;;
40637;SDS011;26336;44.696;10.622;2024-03-06T06:19:38;4.50;;;3.43;;
40637;SDS011;26336;44.696;10.622;2024-03-06T06:22:45;3.93;;;2.93;;
40637;SDS011;26336;44.696;10.622;2024-03-06T06:25:49;8.70;;;5.93;;
40637;SDS011;26336;44.696;10.622;2024-03-06T06:28:53;8.00;;;4.83;;
40637;SDS011;26336;44.696;10.622;2024-03-06T06:31:57;5.20;;;4.60;;
40637;SDS011;26336;44.696;10.622;2024-03-06T06:35:01;8.53;;;4.33;;
40637;SDS011;26336;44.696;10.622;2024-03-06T06:38:05;5.50;;;4.10;;
40637;SDS011;26336;44.696;10.622;2024-03-06T06:41:09;9.17;;;4.67;;
40637;SDS011;26336;44.696;10.622;2024-03-06T06:44:13;7.00;;;4.80;;
40637;SDS011;26336;44.696;10.622;2024-03-06T06:47:17;5.80;;;4.23;;
40637;SDS011;26336;44.696;10.622;2024-03-06T06:50:21;5.87;;;4.33;;
40637;SDS011;26336;44.696;10.622;2024-03-06T06:53:32;6.33;;;5.23;;
40637;SDS011;26336;44.696;10.622;2024-03-06T06:56:35;7.27;;;5.50;;
40637;SDS011;26336;44.696;10.622;2024-03-06T06:59:39;7.67;;;5.63;;
40637;SDS011;26336;44.696;10.622;2024-03-06T07:02:43;7.10;;;5.77;;
40637;SDS011;26336;44.696;10.622;2024-03-06T07:05:49;8.17;;;5.37;;
40637;SDS011;26336;44.696;10.622;2024-03-06T07:08:53;8.00;;;5.33;;
40637;SDS011;26336;44.696;10.622;2024-03-06T07:11:57;8.53;;;6.00;;
40637;SDS011;26336;44.696;10.622;2024-03-06T07:15:01;9.13;;;5.80;;
40637;SDS011;26336;44.696;10.622;2024-03-06T07:18:08;7.67;;;5.90;;
40637;SDS011;26336;44.696;10.622;2024-03-06T07:21:11;9.13;;;6.70;;
40637;SDS011;26336;44.696;10.622;2024-03-06T07:24:15;6.60;;;5.40;;
40637;SDS011;26336;44.696;10.622;2024-03-06T07:27:19;8.37;;;6.27;;
40637;SDS011;26336;44.696;10.622;2024-03-06T07:30:23;7.13;;;5.57;;
40637;SDS011;26336;44.696;10.622;2024-03-06T07:33:27;9.40;;;6.57;;
40637;SDS011;26336;44.696;10.622;2024-03-06T07:36:31;7.57;;;5.87;;
40637;SDS011;26336;44.696;10.622;2024-03-06T07:39:35;7.17;;;4.90;;
40637;SDS011;26336;44.696;10.622;2024-03-06T07:42:39;7.20;;;4.43;;
40637;SDS011;26336;44.696;10.622;2024-03-06T07:45:43;5.43;;;4.07;;
40637;SDS011;26336;44.696;10.622;2024-03-06T07:48:47;5.60;;;4.00;;
40637;SDS011;26336;44.696;10.622;2024-03-06T07:51:52;4.23;;;3.83;;
40637;SDS011;26336;44.696;10.622;2024-03-06T07:54:57;3.90;;;3.07;;
40637;SDS011;26336;44.696;10.622;2024-03-06T07:58:01;4.30;;;3.30;;
40637;SDS011;26336;44.696;10.622;2024-03-06T08:01:06;5.03;;;4.00;;
40637;SDS011;26336;44.696;10.622;2024-03-06T08:04:10;3.60;;;3.22;;
40637;SDS011;26336;44.696;10.622;2024-03-06T08:07:14;5.10;;;3.40;;
40637;SDS011;26336;44.696;10.622;2024-03-06T08:10:18;3.67;;;2.83;;
40637;SDS011;26336;44.696;10.622;2024-03-06T08:13:22;4.05;;;3.10;;
40637;SDS011;26336;44.696;10.622;2024-03-06T08:16:25;3.97;;;2.90;;
40637;SDS011;26336;44.696;10.622;2024-03-06T08:19:29;2.83;;;2.53;;
40637;SDS011;26336;44.696;10.622;2024-03-06T08:22:42;2.55;;;1.92;;
40637;SDS011;26336;44.696;10.622;2024-03-06T08:25:46;2.72;;;2.42;;
40637;SDS011;26336;44.696;10.622;2024-03-06T08:28:50;2.38;;;2.20;;
40637;SDS011;26336;44.696;10.622;2024-03-06T08:31:55;3.03;;;2.45;;
40637;SDS011;26336;44.696;10.622;2024-03-06T08:35:11;3.47;;;3.00;;
40637;SDS011;26336;44.696;10.622;2024-03-06T08:38:16;3.35;;;2.53;;
40637;SDS011;26336;44.696;10.622;2024-03-06T08:41:20;2.80;;;2.58;;
40637;SDS011;26336;44.696;10.622;2024-03-06T08:44:25;3.75;;;2.63;;
40637;SDS011;26336;44.696;10.622;2024-03-06T08:47:28;2.85;;;2.38;;
40637;SDS011;26336;44.696;10.622;2024-03-06T08:50:32;4.03;;;2.97;;
40637;SDS011;26336;44.696;10.622;2024-03-06T08:53:37;3.95;;;3.08;;
40637;SDS011;26336;44.696;10.622;2024-03-06T08:56:44;3.33;;;2.50;;
40637;SDS011;26336;44.696;10.622;2024-03-06T08:59:48;3.13;;;2.83;;
40637;SDS011;26336;44.696;10.622;2024-03-06T09:02:52;3.20;;;2.80;;
40637;SDS011;26336;44.696;10.622;2024-03-06T09:05:57;4.43;;;2.38;;
40637;SDS011;26336;44.696;10.622;2024-03-06T09:09:06;4.07;;;2.83;;
40637;SDS011;26336;44.696;10.622;2024-03-06T09:12:11;3.53;;;3.22;;
40637;SDS011;26336;44.696;10.622;2024-03-06T09:15:16;4.03;;;3.67;;
40637;SDS011;26336;44.696;10.622;2024-03-06T09:18:21;3.83;;;3.42;;
40637;SDS011;26336;44.696;10.622;2024-03-06T09:21:25;4.55;;;3.72;;
40637;SDS011;26336;44.696;10.622;2024-03-06T09:24:29;5.65;;;3.72;;
40637;SDS011;26336;44.696;10.622;2024-03-06T09:27:33;4.80;;;4.22;;
40637;SDS011;26336;44.696;10.622;2024-03-06T09:30:37;4.15;;;3.75;;
40637;SDS011;26336;44.696;10.622;2024-03-06T09:33:45;5.70;;;4.60;;
40637;SDS011;26336;44.696;10.622;2024-03-06T09:36:50;5.10;;;4.60;;
40637;SDS011;26336;44.696;10.622;2024-03-06T09:39:53;7.18;;;5.22;;
40637;SDS011;26336;44.696;10.622;2024-03-06T09:42:57;9.57;;;5.60;;
40637;SDS011;26336;44.696;10.622;2024-03-06T09:46:01;9.10;;;5.80;;
40637;SDS011;26336;44.696;10.622;2024-03-06T09:49:07;6.88;;;5.85;;
40637;SDS011;26336;44.696;10.622;2024-03-06T09:52:13;8.75;;;6.75;;
40637;SDS011;26336;44.696;10.622;2024-03-06T09:55:17;8.77;;;7.05;;
40637;SDS011;26336;44.696;10.622;2024-03-06T09:58:21;10.98;;;6.80;;
40637;SDS011;26336;44.696;10.622;2024-03-06T10:01:25;8.95;;;7.13;;
40637;SDS011;26336;44.696;10.622;2024-03-06T10:04:32;8.75;;;7.00;;
40637;SDS011;26336;44.696;10.622;2024-03-06T10:07:37;10.07;;;6.90;;
40637;SDS011;26336;44.696;10.622;2024-03-06T10:10:41;9.68;;;6.70;;
40637;SDS011;26336;44.696;10.622;2024-03-06T10:13:46;10.73;;;7.32;;
40637;SDS011;26336;44.696;10.622;2024-03-06T10:16:57;10.80;;;6.75;;
40637;SDS011;26336;44.696;10.622;2024-03-06T10:20:12;8.68;;;6.85;;
40637;SDS011;26336;44.696;10.622;2024-03-06T10:23:23;11.73;;;7.53;;
40637;SDS011;26336;44.696;10.622;2024-03-06T10:26:29;10.05;;;6.95;;
40637;SDS011;26336;44.696;10.622;2024-03-06T10:29:33;10.02;;;7.63;;
40637;SDS011;26336;44.696;10.622;2024-03-06T10:32:38;7.95;;;7.10;;
40637;SDS011;26336;44.696;10.622;2024-03-06T10:35:43;8.20;;;6.97;;
40637;SDS011;26336;44.696;10.622;2024-03-06T10:38:48;9.27;;;7.13;;
40637;SDS011;26336;44.696;10.622;2024-03-06T10:41:56;8.68;;;7.55;;
40637;SDS011;26336;44.696;10.622;2024-03-06T10:45:01;8.15;;;7.28;;
40637;SDS011;26336;44.696;10.622;2024-03-06T10:48:06;9.75;;;7.97;;
40637;SDS011;26336;44.696;10.622;2024-03-06T10:51:12;7.93;;;6.88;;
40637;SDS011;26336;44.696;10.622;2024-03-06T10:54:18;8.15;;;7.22;;
40637;SDS011;26336;44.696;10.622;2024-03-06T10:57:24;11.38;;;7.53;;
40637;SDS011;26336;44.696;10.622;2024-03-06T11:00:29;12.63;;;8.23;;
40637;SDS011;26336;44.696;10.622;2024-03-06T11:03:34;10.95;;;7.40;;
40637;SDS011;26336;44.696;10.622;2024-03-06T11:06:39;8.73;;;7.32;;
40637;SDS011;26336;44.696;10.622;2024-03-06T11:09:43;9.10;;;6.88;;
40637;SDS011;26336;44.696;10.622;2024-03-06T11:12:47;7.75;;;6.90;;
40637;SDS011;26336;44.696;10.622;2024-03-06T11:15:57;9.35;;;8.07;;
40637;SDS011;26336;44.696;10.622;2024-03-06T11:19:08;11.82;;;7.82;;
40637;SDS011;26336;44.696;10.622;2024-03-06T11:22:12;10.95;;;8.10;;
40637;SDS011;26336;44.696;10.622;2024-03-06T11:29:07;8.18;;;6.45;;
40637;SDS011;26336;44.696;10.622;2024-03-06T11:32:11;11.15;;;7.60;;
40637;SDS011;26336;44.696;10.622;2024-03-06T11:35:17;8.32;;;6.20;;
40637;SDS011;26336;44.696;10.622;2024-03-06T11:38:21;7.35;;;6.57;;
40637;SDS011;26336;44.696;10.622;2024-03-06T11:41:26;10.18;;;7.18;;
40637;SDS011;26336;44.696;10.622;2024-03-06T11:44:32;9.05;;;7.13;;
40637;SDS011;26336;44.696;10.622;2024-03-06T11:47:55;10.55;;;7.22;;
40637;SDS011;26336;44.696;10.622;2024-03-06T11:51:01;7.97;;;6.07;;
40637;SDS011;26336;44.696;10.622;2024-03-06T11:54:05;8.02;;;7.20;;
40637;SDS011;26336;44.696;10.622;2024-03-06T11:57:10;8.55;;;6.70;;
40637;SDS011;26336;44.696;10.622;2024-03-06T12:00:16;7.38;;;6.20;;
40637;SDS011;26336;44.696;10.622;2024-03-06T12:03:20;7.55;;;6.75;;
40637;SDS011;26336;44.696;10.622;2024-03-06T12:06:26;7.95;;;6.75;;
40637;SDS011;26336;44.696;10.622;2024-03-06T12:09:31;7.70;;;6.72;;
40637;SDS011;26336;44.696;10.622;2024-03-06T12:12:36;7.00;;;6.25;;
40637;SDS011;26336;44.696;10.622;2024-03-06T12:15:43;6.10;;;5.50;;
40637;SDS011;26336;44.696;10.622;2024-03-06T12:18:55;8.27;;;6.38;;
40637;SDS011;26336;44.696;10.622;2024-03-06T12:22:05;9.32;;;6.45;;
40637;SDS011;26336;44.696;10.622;2024-03-06T12:25:10;7.32;;;5.53;;
40637;SDS011;26336;44.696;10.622;2024-03-06T12:28:14;10.02;;;5.97;;
40637;SDS011;26336;44.696;10.622;2024-03-06T12:31:18;7.72;;;5.80;;
40637;SDS011;26336;44.696;10.622;2024-03-06T12:34:22;8.18;;;6.22;;
40637;SDS011;26336;44.696;10.622;2024-03-06T12:37:29;5.88;;;4.85;;
40637;SDS011;26336;44.696;10.622;2024-03-06T12:40:34;6.25;;;4.88;;
40637;SDS011;26336;44.696;10.622;2024-03-06T12:43:38;5.88;;;5.28;;
40637;SDS011;26336;44.696;10.622;2024-03-06T12:46:43;6.53;;;5.13;;
40637;SDS011;26336;44.696;10.622;2024-03-06T12:49:47;7.35;;;5.07;;
40637;SDS011;26336;44.696;10.622;2024-03-06T12:52:51;4.95;;;4.47;;
40637;SDS011;26336;44.696;10.622;2024-03-06T12:55:56;4.65;;;3.80;;
40637;SDS011;26336;44.696;10.622;2024-03-06T12:58:59;4.70;;;3.72;;
40637;SDS011;26336;44.696;10.622;2024-03-06T13:02:03;4.75;;;4.20;;
40637;SDS011;26336;44.696;10.622;2024-03-06T13:05:08;7.25;;;4.57;;
40637;SDS011;26336;44.696;10.622;2024-03-06T13:08:12;6.57;;;4.40;;
40637;SDS011;26336;44.696;10.622;2024-03-06T13:11:17;5.45;;;4.60;;
40637;SDS011;26336;44.696;10.622;2024-03-06T13:14:22;9.38;;;4.22;;
40637;SDS011;26336;44.696;10.622;2024-03-06T13:17:26;6.30;;;3.72;;
40637;SDS011;26336;44.696;10.622;2024-03-06T13:20:32;4.07;;;2.75;;
40637;SDS011;26336;44.696;10.622;2024-03-06T13:23:37;4.13;;;3.20;;
40637;SDS011;26336;44.696;10.622;2024-03-06T13:26:41;4.15;;;2.95;;
40637;SDS011;26336;44.696;10.622;2024-03-06T13:29:45;4.32;;;2.30;;
40637;SDS011;26336;44.696;10.622;2024-03-06T13:32:50;4.90;;;3.20;;
40637;SDS011;26336;44.696;10.622;2024-03-06T13:35:54;4.22;;;3.00;;
40637;SDS011;26336;44.696;10.622;2024-03-06T13:38:59;4.70;;;2.92;;
40637;SDS011;26336;44.696;10.622;2024-03-06T13:42:03;3.13;;;2.05;;
40637;SDS011;26336;44.696;10.622;2024-03-06T13:45:07;3.17;;;2.65;;
40637;SDS011;26336;44.696;10.622;2024-03-06T13:48:17;4.03;;;2.90;;
40637;SDS011;26336;44.696;10.622;2024-03-06T13:51:22;4.70;;;3.80;;
40637;SDS011;26336;44.696;10.622;2024-03-06T13:54:26;5.15;;;2.83;;
40637;SDS011;26336;44.696;10.622;2024-03-06T13:57:31;3.28;;;2.42;;
40637;SDS011;26336;44.696;10.622;2024-03-06T14:00:37;3.03;;;2.55;;
40637;SDS011;26336;44.696;10.622;2024-03-06T14:03:40;5.63;;;2.45;;
40637;SDS011;26336;44.696;10.622;2024-03-06T14:06:44;4.45;;;2.03;;
40637;SDS011;26336;44.696;10.622;2024-03-06T14:09:49;3.38;;;1.70;;
40637;SDS011;26336;44.696;10.622;2024-03-06T14:12:53;3.28;;;1.92;;
40637;SDS011;26336;44.696;10.622;2024-03-06T14:15:59;3.35;;;1.70;;
40637;SDS011;26336;44.696;10.622;2024-03-06T14:19:03;4.43;;;2.40;;
40637;SDS011;26336;44.696;10.622;2024-03-06T14:22:07;3.45;;;2.88;;
40637;SDS011;26336;44.696;10.622;2024-03-06T14:25:11;4.20;;;2.70;;
40637;SDS011;26336;44.696;10.622;2024-03-06T14:28:15;5.20;;;2.60;;
40637;SDS011;26336;44.696;10.622;2024-03-06T14:31:20;3.67;;;2.55;;
40637;SDS011;26336;44.696;10.622;2024-03-06T14:34:24;3.63;;;2.30;;
40637;SDS011;26336;44.696;10.622;2024-03-06T14:37:28;2.78;;;2.30;;
40637;SDS011;26336;44.696;10.622;2024-03-06T14:40:31;3.63;;;2.00;;
40637;SDS011;26336;44.696;10.622;2024-03-06T14:43:37;4.05;;;2.20;;
40637;SDS011;26336;44.696;10.622;2024-03-06T14:46:41;2.72;;;1.90;;
40637;SDS011;26336;44.696;10.622;2024-03-06T14:49:46;2.42;;;1.50;;
40637;SDS011;26336;44.696;10.622;2024-03-06T14:52:52;2.03;;;1.63;;
40637;SDS011;26336;44.696;10.622;2024-03-06T14:55:56;2.03;;;1.38;;
40637;SDS011;26336;44.696;10.622;2024-03-06T14:59:00;3.75;;;1.42;;
40637;SDS011;26336;44.696;10.622;2024-03-06T15:02:05;2.00;;;1.20;;
40637;SDS011;26336;44.696;10.622;2024-03-06T15:05:09;2.00;;;1.15;;
40637;SDS011;26336;44.696;10.622;2024-03-06T15:08:15;2.85;;;1.55;;
40637;SDS011;26336;44.696;10.622;2024-03-06T15:11:19;2.13;;;1.08;;
40637;SDS011;26336;44.696;10.622;2024-03-06T15:14:25;2.03;;;1.73;;
40637;SDS011;26336;44.696;10.622;2024-03-06T15:17:29;3.67;;;1.52;;
40637;SDS011;26336;44.696;10.622;2024-03-06T15:20:35;1.65;;;1.20;;
40637;SDS011;26336;44.696;10.622;2024-03-06T15:23:43;1.98;;;1.20;;
40637;SDS011;26336;44.696;10.622;2024-03-06T15:26:48;1.75;;;1.15;;
40637;SDS011;26336;44.696;10.622;2024-03-06T15:29:51;3.55;;;1.10;;
40637;SDS011;26336;44.696;10.622;2024-03-06T15:32:55;2.97;;;1.05;;
40637;SDS011;26336;44.696;10.622;2024-03-06T15:35:59;2.22;;;1.17;;
40637;SDS011;26336;44.696;10.622;2024-03-06T15:39:03;1.80;;;1.05;;
40637;SDS011;26336;44.696;10.622;2024-03-06T15:42:10;1.80;;;0.88;;
40637;SDS011;26336;44.696;10.622;2024-03-06T15:45:15;1.70;;;1.10;;
40637;SDS011;26336;44.696;10.622;2024-03-06T15:48:19;1.33;;;0.98;;
40637;SDS011;26336;44.696;10.622;2024-03-06T15:51:23;2.70;;;1.08;;
40637;SDS011;26336;44.696;10.622;2024-03-06T15:54:27;1.17;;;0.95;;
40637;SDS011;26336;44.696;10.622;2024-03-06T15:57:31;1.85;;;0.98;;
40637;SDS011;26336;44.696;10.622;2024-03-06T16:00:35;1.27;;;0.93;;
40637;SDS011;26336;44.696;10.622;2024-03-06T16:03:39;3.00;;;1.15;;
40637;SDS011;26336;44.696;10.622;2024-03-06T16:06:43;3.28;;;1.73;;
40637;SDS011;26336;44.696;10.622;2024-03-06T16:09:47;4.95;;;1.90;;
40637;SDS011;26336;44.696;10.622;2024-03-06T16:12:54;2.67;;;1.25;;
40637;SDS011;26336;44.696;10.622;2024-03-06T16:15:58;3.85;;;2.22;;
40637;SDS011;26336;44.696;10.622;2024-03-06T16:19:03;4.43;;;2.20;;
40637;SDS011;26336;44.696;10.622;2024-03-06T16:22:07;1.55;;;0.95;;
40637;SDS011;26336;44.696;10.622;2024-03-06T16:25:11;2.65;;;0.80;;
40637;SDS011;26336;44.696;10.622;2024-03-06T16:28:15;1.88;;;0.95;;
40637;SDS011;26336;44.696;10.622;2024-03-06T16:31:18;1.75;;;0.90;;
40637;SDS011;26336;44.696;10.622;2024-03-06T16:34:24;1.65;;;0.95;;
40637;SDS011;26336;44.696;10.622;2024-03-06T16:37:28;3.00;;;1.30;;
40637;SDS011;26336;44.696;10.622;2024-03-06T16:40:32;5.15;;;1.25;;
40637;SDS011;26336;44.696;10.622;2024-03-06T16:43:38;1.83;;;1.60;;
40637;SDS011;26336;44.696;10.622;2024-03-06T16:46:43;2.00;;;1.10;;
40637;SDS011;26336;44.696;10.622;2024-03-06T16:49:47;2.75;;;1.80;;
40637;SDS011;26336;44.696;10.622;2024-03-06T16:52:51;5.03;;;2.22;;
40637;SDS011;26336;44.696;10.622;2024-03-06T16:55:55;3.35;;;1.92;;
40637;SDS011;26336;44.696;10.622;2024-03-06T16:58:59;3.53;;;2.13;;
40637;SDS011;26336;44.696;10.622;2024-03-06T17:02:05;3.17;;;1.50;;
40637;SDS011;26336;44.696;10.622;2024-03-06T17:05:09;3.17;;;1.90;;
40637;SDS011;26336;44.696;10.622;2024-03-06T17:08:13;3.28;;;1.92;;
40637;SDS011;26336;44.696;10.622;2024-03-06T17:11:17;3.47;;;2.42;;
40637;SDS011;26336;44.696;10.622;2024-03-06T17:14:21;3.00;;;2.35;;
40637;SDS011;26336;44.696;10.622;2024-03-06T17:17:25;3.42;;;2.83;;
40637;SDS011;26336;44.696;10.622;2024-03-06T17:20:29;5.65;;;3.00;;
40637;SDS011;26336;44.696;10.622;2024-03-06T17:23:33;8.90;;;3.85;;
40637;SDS011;26336;44.696;10.622;2024-03-06T17:26:37;6.07;;;4.43;;
40637;SDS011;26336;44.696;10.622;2024-03-06T17:29:42;11.57;;;5.10;;
40637;SDS011;26336;44.696;10.622;2024-03-06T17:32:46;9.02;;;4.63;;
40637;SDS011;26336;44.696;10.622;2024-03-06T17:35:51;6.82;;;5.30;;
40637;SDS011;26336;44.696;10.622;2024-03-06T17:38:57;9.85;;;5.18;;
40637;SDS011;26336;44.696;10.622;2024-03-06T17:42:01;7.20;;;4.85;;
40637;SDS011;26336;44.696;10.622;2024-03-06T17:45:06;7.82;;;5.50;;
40637;SDS011;26336;44.696;10.622;2024-03-06T17:48:10;7.32;;;5.20;;
40637;SDS011;26336;44.696;10.622;2024-03-06T17:51:15;8.13;;;5.18;;
40637;SDS011;26336;44.696;10.622;2024-03-06T17:54:19;9.30;;;5.82;;
40637;SDS011;26336;44.696;10.622;2024-03-06T17:57:24;11.65;;;6.03;;
40637;SDS011;26336;44.696;10.622;2024-03-06T18:00:28;10.18;;;6.22;;
40637;SDS011;26336;44.696;10.622;2024-03-06T18:03:32;12.43;;;6.07;;
40637;SDS011;26336;44.696;10.622;2024-03-06T18:06:36;11.10;;;6.15;;
40637;SDS011;26336;44.696;10.622;2024-03-06T18:09:39;13.00;;;7.20;;
40637;SDS011;26336;44.696;10.622;2024-03-06T18:12:43;9.63;;;6.65;;
40637;SDS011;26336;44.696;10.622;2024-03-06T18:15:47;12.45;;;6.50;;
40637;SDS011;26336;44.696;10.622;2024-03-06T18:18:54;7.38;;;6.15;;